createdAt,value
2023-05-13T00:01:53.769Z,11.60
2023-05-13T00:04:20.528Z,11.60
2023-05-13T00:06:47.237Z,11.60
2023-05-13T00:09:13.917Z,11.60
2023-05-13T00:11:41.308Z,11.70
2023-05-13T00:14:10.479Z,11.60
2023-05-13T00:16:37.427Z,11.60
2023-05-13T00:19:04.451Z,11.60
2023-05-13T00:21:32.250Z,11.60
2023-05-13T00:23:59.041Z,11.50
2023-05-13T00:26:25.902Z,11.60
2023-05-13T00:28:52.686Z,11.60
2023-05-13T00:31:19.587Z,11.60
2023-05-13T00:33:46.338Z,11.60
2023-05-13T00:36:13.271Z,11.50
2023-05-13T00:38:40.193Z,11.50
2023-05-13T00:41:07.298Z,11.40
2023-05-13T00:43:34.014Z,11.40
2023-05-13T00:46:01.194Z,11.50
2023-05-13T00:48:27.960Z,11.40
2023-05-13T00:50:55.067Z,11.50
2023-05-13T00:53:22.177Z,11.50
2023-05-13T00:55:49.113Z,11.50
2023-05-13T00:58:17.896Z,11.50
2023-05-13T01:01:09.516Z,11.40
2023-05-13T01:04:13.945Z,11.40
2023-05-13T01:07:09.229Z,11.50
2023-05-13T01:09:58.590Z,11.40
2023-05-13T01:12:36.754Z,11.40
2023-05-13T01:15:26.021Z,11.40
2023-05-13T01:18:06.753Z,11.40
2023-05-13T01:20:34.882Z,11.40
2023-05-13T01:23:03.993Z,11.40
2023-05-13T01:25:31.004Z,11.50
2023-05-13T01:27:57.825Z,11.40
2023-05-13T01:30:25.348Z,11.40
2023-05-13T01:32:53.918Z,11.30
2023-05-13T01:35:21.497Z,11.30
2023-05-13T01:37:50.223Z,11.30
2023-05-13T01:40:31.158Z,11.60
2023-05-13T01:42:59.354Z,11.30
2023-05-13T01:45:29.089Z,11.40
2023-05-13T01:47:56.021Z,11.40
2023-05-13T01:50:22.946Z,11.40
2023-05-13T01:52:49.858Z,11.30
2023-05-13T01:55:16.740Z,11.40
2023-05-13T01:57:43.464Z,11.40
2023-05-13T02:00:10.827Z,11.40
2023-05-13T02:02:37.828Z,11.30
2023-05-13T02:05:05.631Z,11.30
2023-05-13T02:07:33.483Z,11.30
2023-05-13T02:10:00.381Z,11.30
2023-05-13T02:12:27.549Z,11.30
2023-05-13T02:14:55.039Z,11.30
2023-05-13T02:17:22.637Z,11.30
2023-05-13T02:19:49.707Z,11.40
2023-05-13T02:22:16.614Z,11.80
2023-05-13T02:24:43.406Z,11.30
2023-05-13T02:27:12.738Z,11.30
2023-05-13T02:29:39.707Z,11.30
2023-05-13T02:32:06.692Z,11.40
2023-05-13T02:34:33.548Z,11.20
2023-05-13T02:37:00.303Z,11.20
2023-05-13T02:39:27.089Z,11.20
2023-05-13T02:41:53.796Z,11.20
2023-05-13T02:44:20.496Z,11.20
2023-05-13T02:46:47.280Z,11.20
2023-05-13T02:49:14.188Z,11.10
2023-05-13T02:51:41.065Z,11.20
2023-05-13T02:54:07.865Z,11.10
2023-05-13T02:56:34.590Z,11.20
2023-05-13T02:59:01.630Z,11.10
2023-05-13T03:01:28.590Z,11.10
2023-05-13T03:03:55.511Z,11.20
2023-05-13T03:06:22.264Z,11.20
2023-05-13T03:08:48.947Z,11.20
2023-05-13T03:11:15.650Z,11.10
2023-05-13T03:13:42.405Z,11.10
2023-05-13T03:16:09.729Z,11.10
2023-05-13T03:18:36.572Z,11.10
2023-05-13T03:21:03.402Z,11.00
2023-05-13T03:23:30.332Z,11.00
2023-05-13T03:25:57.047Z,11.10
2023-05-13T03:28:23.743Z,11.10
2023-05-13T03:30:51.473Z,11.00
2023-05-13T03:33:18.506Z,11.00
2023-05-13T03:35:45.794Z,11.00
2023-05-13T03:38:12.494Z,11.00
2023-05-13T03:40:39.465Z,11.00
2023-05-13T03:43:06.178Z,11.10
2023-05-13T03:45:32.971Z,11.00
2023-05-13T03:47:59.671Z,11.00
2023-05-13T03:50:26.615Z,11.00
2023-05-13T03:52:53.342Z,11.00
2023-05-13T03:55:20.259Z,11.20
2023-05-13T03:57:49.266Z,11.00
2023-05-13T04:00:16.597Z,11.30
2023-05-13T04:02:43.575Z,11.00
2023-05-13T04:05:11.066Z,11.10
2023-05-13T04:07:37.910Z,11.10
2023-05-13T04:10:05.015Z,11.00
2023-05-13T04:12:33.369Z,11.00
2023-05-13T04:15:00.307Z,11.10
2023-05-13T04:17:27.632Z,11.00
2023-05-13T04:19:54.993Z,11.10
2023-05-13T04:22:22.106Z,11.00
2023-05-13T04:24:52.166Z,11.00
2023-05-13T04:27:18.952Z,11.00
2023-05-13T04:29:45.655Z,10.90
2023-05-13T04:32:16.174Z,10.90
2023-05-13T04:34:43.011Z,11.00
2023-05-13T04:37:09.743Z,11.00
2023-05-13T04:39:36.438Z,11.00
2023-05-13T04:42:03.270Z,11.00
2023-05-13T04:44:29.959Z,11.00
2023-05-13T04:46:56.703Z,11.00
2023-05-13T04:49:23.426Z,11.00
2023-05-13T04:51:50.637Z,11.00
2023-05-13T04:54:17.723Z,11.00
2023-05-13T04:56:44.511Z,11.10
2023-05-13T04:59:11.247Z,11.00
2023-05-13T05:01:37.957Z,11.00
2023-05-13T05:04:05.796Z,11.00
2023-05-13T05:06:32.778Z,10.80
2023-05-13T05:08:59.631Z,10.90
2023-05-13T05:11:26.427Z,10.90
2023-05-13T05:13:53.183Z,10.90
2023-05-13T05:16:19.992Z,10.90
2023-05-13T05:18:46.892Z,11.20
2023-05-13T05:21:13.728Z,11.00
2023-05-13T05:23:40.422Z,11.00
2023-05-13T05:26:11.771Z,11.00
2023-05-13T05:28:40.273Z,11.00
2023-05-13T05:31:07.275Z,10.90
2023-05-13T05:33:34.128Z,11.00
2023-05-13T05:36:00.875Z,11.00
2023-05-13T05:38:27.902Z,11.00
2023-05-13T05:40:54.749Z,11.00
2023-05-13T05:43:21.621Z,11.00
2023-05-13T05:45:48.413Z,11.00
2023-05-13T05:48:15.122Z,11.00
2023-05-13T05:50:41.913Z,11.00
2023-05-13T05:53:08.635Z,11.00
2023-05-13T05:55:35.534Z,11.00
2023-05-13T05:58:06.628Z,11.10
2023-05-13T06:00:33.527Z,11.10
2023-05-13T06:03:00.489Z,11.20
2023-05-13T06:05:27.576Z,11.20
2023-05-13T06:07:54.314Z,11.30
2023-05-13T06:10:21.294Z,11.30
2023-05-13T06:12:48.221Z,11.30
2023-05-13T06:15:15.004Z,11.30
2023-05-13T06:17:41.985Z,11.30
2023-05-13T06:20:09.308Z,12.90
2023-05-13T06:22:36.095Z,11.40
2023-05-13T06:25:02.914Z,11.30
2023-05-13T06:27:29.694Z,11.30
2023-05-13T06:29:56.445Z,11.30
2023-05-13T06:32:23.193Z,11.30
2023-05-13T06:34:53.526Z,11.30
2023-05-13T06:37:22.072Z,11.30
2023-05-13T06:39:48.810Z,11.30
2023-05-13T06:42:15.868Z,11.30
2023-05-13T06:44:42.769Z,11.30
2023-05-13T06:47:14.802Z,11.30
2023-05-13T06:49:42.321Z,11.40
2023-05-13T06:52:09.952Z,11.30
2023-05-13T06:54:36.894Z,12.80
2023-05-13T06:57:05.757Z,11.30
2023-05-13T06:59:32.524Z,11.40
2023-05-13T07:01:59.388Z,11.40
2023-05-13T07:04:26.151Z,11.30
2023-05-13T07:06:54.769Z,11.40
2023-05-13T07:09:21.545Z,11.40
2023-05-13T07:11:48.472Z,11.40
2023-05-13T07:14:15.269Z,11.40
2023-05-13T07:16:42.052Z,11.50
2023-05-13T07:19:08.943Z,11.50
2023-05-13T07:21:35.785Z,11.40
2023-05-13T07:24:05.148Z,11.40
2023-05-13T07:26:32.512Z,11.40
2023-05-13T07:29:05.540Z,11.30
2023-05-13T07:31:36.031Z,11.80
2023-05-13T07:34:06.163Z,11.50
2023-05-13T07:36:36.423Z,11.30
2023-05-13T07:42:36.938Z,11.40
2023-05-13T07:45:24.389Z,11.20
2023-05-13T07:54:23.949Z,11.40
2023-05-13T08:00:07.915Z,11.50
2023-05-13T08:02:59.681Z,11.40
2023-05-13T08:09:07.744Z,11.40
2023-05-13T08:11:47.280Z,11.40
2023-05-13T08:14:39.096Z,11.30
2023-05-13T08:17:35.099Z,11.40
2023-05-13T08:20:04.019Z,11.40
2023-05-13T08:22:31.230Z,11.80
2023-05-13T08:25:03.200Z,11.20
2023-05-13T08:27:33.303Z,11.20
2023-05-13T08:30:00.170Z,11.50
2023-05-13T08:32:27.549Z,11.80
2023-05-13T08:34:54.442Z,11.40
2023-05-13T08:37:21.230Z,12.30
2023-05-13T08:39:47.987Z,13.30
2023-05-13T08:42:19.294Z,12.60
2023-05-13T08:44:46.901Z,11.30
2023-05-13T08:47:26.341Z,11.30
2023-05-13T08:49:53.343Z,11.20
2023-05-13T08:52:22.595Z,11.30
2023-05-13T08:54:49.672Z,11.20
2023-05-13T08:57:16.913Z,11.30
2023-05-13T08:59:43.767Z,11.30
2023-05-13T09:02:10.884Z,11.30
2023-05-13T09:04:41.741Z,11.30
2023-05-13T09:07:09.291Z,11.40
2023-05-13T09:09:36.226Z,11.50
2023-05-13T09:12:03.720Z,11.40
2023-05-13T09:14:35.552Z,11.40
2023-05-13T09:17:02.609Z,13.60
2023-05-13T09:19:30.129Z,12.70
2023-05-13T09:22:09.645Z,13.00
2023-05-13T09:24:36.724Z,12.30
2023-05-13T09:27:12.443Z,12.70
2023-05-13T09:29:39.716Z,11.40
2023-05-13T09:32:12.652Z,11.50
2023-05-13T09:35:01.378Z,11.50
2023-05-13T09:37:50.499Z,13.10
2023-05-13T09:40:18.312Z,11.70
2023-05-13T09:42:46.737Z,13.20
2023-05-13T09:45:24.138Z,12.90
2023-05-13T09:47:53.634Z,12.40
2023-05-13T09:50:22.142Z,13.20
2023-05-13T09:52:49.852Z,11.70
2023-05-13T09:55:16.622Z,13.10
2023-05-13T09:57:43.427Z,11.80
2023-05-13T10:00:21.104Z,11.80
2023-05-13T10:02:56.322Z,11.80
2023-05-13T10:05:24.160Z,11.70
2023-05-13T10:07:50.913Z,11.50
2023-05-13T10:10:17.718Z,11.50
2023-05-13T10:12:44.627Z,11.50
2023-05-13T10:15:11.805Z,11.60
2023-05-13T10:17:42.433Z,11.60
2023-05-13T10:20:09.451Z,11.50
2023-05-13T10:22:36.926Z,11.60
2023-05-13T10:25:05.136Z,11.50
2023-05-13T10:27:33.367Z,11.50
2023-05-13T10:30:03.703Z,11.90
2023-05-13T10:32:31.597Z,11.50
2023-05-13T10:35:16.886Z,11.50
2023-05-13T10:38:01.766Z,11.40
2023-05-13T10:40:40.742Z,11.50
2023-05-13T10:43:20.339Z,11.50
2023-05-13T10:45:56.111Z,11.40
2023-05-13T10:48:24.008Z,11.90
2023-05-13T10:51:03.183Z,11.30
2023-05-13T10:53:32.305Z,11.40
2023-05-13T10:56:00.236Z,11.50
2023-05-13T10:58:36.816Z,12.30
2023-05-13T11:01:14.761Z,11.40
2023-05-13T11:03:42.801Z,11.50
2023-05-13T11:06:18.152Z,11.40
2023-05-13T11:08:49.887Z,13.40
2023-05-13T11:11:28.609Z,11.30
2023-05-13T11:14:03.766Z,11.40
2023-05-13T11:16:30.784Z,11.40
2023-05-13T11:18:58.792Z,11.50
2023-05-13T11:21:34.976Z,11.60
2023-05-13T11:24:06.668Z,11.70
2023-05-13T11:26:48.792Z,11.70
2023-05-13T11:29:16.119Z,11.70
2023-05-13T11:31:44.248Z,11.70
2023-05-13T11:34:13.571Z,11.70
2023-05-13T11:36:45.892Z,11.80
2023-05-13T11:39:20.469Z,11.90
2023-05-13T11:41:50.254Z,11.80
2023-05-13T11:44:19.144Z,11.80
2023-05-13T11:46:56.291Z,11.80
2023-05-13T11:49:33.594Z,11.80
2023-05-13T11:52:17.761Z,11.90
2023-05-13T11:54:55.570Z,11.80
2023-05-13T11:57:24.572Z,11.80
2023-05-13T11:59:59.996Z,11.90
2023-05-13T12:02:31.346Z,11.80
2023-05-13T12:05:04.796Z,11.80
2023-05-13T12:07:32.701Z,11.90
2023-05-13T12:10:01.553Z,11.90
2023-05-13T12:12:30.444Z,11.90
2023-05-13T12:15:00.425Z,11.80
2023-05-13T12:17:27.735Z,11.80
2023-05-13T12:20:12.998Z,11.70
2023-05-13T12:22:43.083Z,11.80
2023-05-13T12:25:45.394Z,11.70
2023-05-13T12:28:13.880Z,11.70
2023-05-13T12:30:49.267Z,11.80
2023-05-13T12:33:27.264Z,11.80
2023-05-13T12:36:13.630Z,11.70
2023-05-13T12:38:40.581Z,11.60
2023-05-13T12:41:13.574Z,11.70
2023-05-13T12:43:41.362Z,11.80
2023-05-13T12:46:08.315Z,11.80
2023-05-13T12:48:35.153Z,12.20
2023-05-13T12:51:02.474Z,12.00
2023-05-13T12:53:29.602Z,12.40
2023-05-13T12:55:56.916Z,11.90
2023-05-13T12:58:23.632Z,12.10
2023-05-13T13:00:50.486Z,12.20
2023-05-13T13:03:17.291Z,12.30
2023-05-13T13:05:44.088Z,12.40
2023-05-13T13:08:10.864Z,12.50
2023-05-13T13:10:37.652Z,12.50
2023-05-13T13:13:04.390Z,12.70
2023-05-13T13:15:31.182Z,12.50
2023-05-13T13:17:57.927Z,12.60
2023-05-13T13:20:24.813Z,12.60
2023-05-13T13:22:55.746Z,12.70
2023-05-13T13:25:22.777Z,12.80
2023-05-13T13:27:49.772Z,12.90
2023-05-13T13:30:16.557Z,13.00
2023-05-13T13:32:43.339Z,13.00
2023-05-13T13:35:10.508Z,13.10
2023-05-13T13:37:38.074Z,13.00
2023-05-13T13:40:05.512Z,13.10
2023-05-13T13:42:43.286Z,13.20
2023-05-13T13:45:11.702Z,13.30
2023-05-13T13:47:38.606Z,13.30
2023-05-13T13:50:06.496Z,13.40
2023-05-13T13:52:33.305Z,13.30
2023-05-13T13:55:00.611Z,14.20
2023-05-13T13:57:27.449Z,13.30
2023-05-13T13:59:54.138Z,13.20
2023-05-13T14:02:20.937Z,13.10
2023-05-13T14:04:47.764Z,13.50
2023-05-13T14:07:14.556Z,13.00
2023-05-13T14:09:41.364Z,13.80
2023-05-13T14:12:08.523Z,13.30
2023-05-13T14:14:35.435Z,12.70
2023-05-13T14:17:02.298Z,12.60
2023-05-13T14:19:29.161Z,12.50
2023-05-13T14:21:55.890Z,12.50
2023-05-13T14:24:23.378Z,12.40
2023-05-13T14:26:50.334Z,12.50
2023-05-13T14:29:17.381Z,12.50
2023-05-13T14:31:44.335Z,12.60
2023-05-13T14:34:11.080Z,12.60
2023-05-13T14:36:37.893Z,12.50
2023-05-13T14:39:04.670Z,12.40
2023-05-13T14:41:35.214Z,12.50
2023-05-13T14:44:02.216Z,12.40
2023-05-13T14:46:29.080Z,12.30
2023-05-13T14:48:59.411Z,13.70
2023-05-13T14:51:26.158Z,12.20
2023-05-13T14:53:52.944Z,13.90
2023-05-13T14:56:19.657Z,12.20
2023-05-13T15:09:27.956Z,12.60
2023-05-13T15:11:54.643Z,12.60
2023-05-13T15:14:25.697Z,12.60
2023-05-13T15:16:53.139Z,12.50
2023-05-13T15:19:20.032Z,12.70
2023-05-13T15:21:46.771Z,12.80
2023-05-13T15:24:18.674Z,12.90
2023-05-13T15:26:45.398Z,13.00
2023-05-13T15:29:12.153Z,13.00
2023-05-13T15:31:40.035Z,13.00
2023-05-13T15:34:06.815Z,13.00
2023-05-13T15:36:35.346Z,13.00
2023-05-13T15:39:02.762Z,13.00
2023-05-13T15:41:29.607Z,13.10
2023-05-13T15:43:56.310Z,13.20
2023-05-13T15:46:24.022Z,13.10
2023-05-13T15:48:50.953Z,13.00
2023-05-13T15:51:21.225Z,13.00
2023-05-13T15:53:47.949Z,13.00
2023-05-13T15:56:19.548Z,12.90
2023-05-13T15:58:46.289Z,12.90
2023-05-13T16:01:13.318Z,12.80
2023-05-13T16:03:40.008Z,12.80
2023-05-13T16:06:07.221Z,12.90
2023-05-13T16:08:33.960Z,12.80
2023-05-13T16:11:00.698Z,12.80
2023-05-13T16:13:27.457Z,12.80
2023-05-13T16:15:54.408Z,12.80
2023-05-13T16:18:21.557Z,12.90
2023-05-13T16:20:48.392Z,12.80
2023-05-13T16:23:15.252Z,12.90
2023-05-13T16:25:43.335Z,13.00
2023-05-13T16:28:10.949Z,13.00
2023-05-13T16:30:37.820Z,13.00
2023-05-13T16:33:04.657Z,13.00
2023-05-13T16:35:31.411Z,13.00
2023-05-13T16:37:58.121Z,13.00
2023-05-13T16:40:25.044Z,12.90
2023-05-13T16:42:51.852Z,12.90
2023-05-13T16:45:18.858Z,12.90
2023-05-13T16:47:45.689Z,12.80
2023-05-13T16:50:12.421Z,12.80
2023-05-13T16:52:39.134Z,12.80
2023-05-13T16:55:06.465Z,12.80
2023-05-13T16:57:33.245Z,12.80
2023-05-13T16:59:59.997Z,12.80
2023-05-13T17:02:26.865Z,12.70
2023-05-13T17:04:53.667Z,12.70
2023-05-13T17:07:20.418Z,12.70
2023-05-13T17:09:47.185Z,12.80
2023-05-13T17:12:13.954Z,12.70
2023-05-13T17:14:40.769Z,12.80
2023-05-13T17:17:07.577Z,12.80
2023-05-13T17:19:34.372Z,12.70
2023-05-13T17:22:01.234Z,12.60
2023-05-13T17:24:31.677Z,12.60
2023-05-13T17:26:58.455Z,12.60
2023-05-13T17:29:25.894Z,12.50
2023-05-13T17:31:52.922Z,12.60
2023-05-13T17:34:20.308Z,12.60
2023-05-13T17:36:48.659Z,12.60
2023-05-13T17:39:16.776Z,12.60
2023-05-13T17:41:43.482Z,12.60
2023-05-13T17:44:10.259Z,12.60
2023-05-13T17:46:37.269Z,12.60
2023-05-13T17:49:04.556Z,12.60
2023-05-13T17:51:31.342Z,12.50
2023-05-13T17:53:58.047Z,12.50
2023-05-13T17:56:25.305Z,12.50
2023-05-13T17:58:52.031Z,12.40
2023-05-13T18:01:21.587Z,12.30
2023-05-13T18:03:48.445Z,12.20
2023-05-13T18:06:15.380Z,12.30
2023-05-13T18:08:42.147Z,12.30
2023-05-13T18:11:08.970Z,12.30
2023-05-13T18:13:35.976Z,12.20
2023-05-13T18:16:04.569Z,12.20
2023-05-13T18:18:31.711Z,12.20
2023-05-13T18:20:59.991Z,12.20
2023-05-13T18:23:26.858Z,12.20
2023-05-13T18:25:56.001Z,12.10
2023-05-13T18:28:25.207Z,12.30
2023-05-13T18:30:52.044Z,12.20
2023-05-13T18:33:20.460Z,12.20
2023-05-13T18:35:47.336Z,12.20
2023-05-13T18:38:14.079Z,12.10
2023-05-13T18:40:40.772Z,12.50
2023-05-13T18:43:07.476Z,12.30
2023-05-13T18:45:34.238Z,12.20
2023-05-13T18:48:01.077Z,12.50
2023-05-13T18:50:27.800Z,12.10
2023-05-13T18:52:54.531Z,12.30
2023-05-13T18:55:21.539Z,12.10
2023-05-13T18:57:48.276Z,12.10
2023-05-13T19:00:15.353Z,12.10
2023-05-13T19:02:42.278Z,12.10
2023-05-13T19:05:09.377Z,12.20
2023-05-13T19:07:36.157Z,12.00
2023-05-13T19:10:03.213Z,12.00
2023-05-13T19:12:29.922Z,12.00
2023-05-13T19:14:56.648Z,12.00
2023-05-13T19:17:26.426Z,12.00
2023-05-13T19:19:53.222Z,12.00
2023-05-13T19:22:20.021Z,12.00
2023-05-13T19:24:46.814Z,12.00
2023-05-13T19:27:13.724Z,12.20
2023-05-13T19:29:40.510Z,11.80
2023-05-13T19:32:07.331Z,11.70
2023-05-13T19:34:34.101Z,11.70
2023-05-13T19:37:01.091Z,11.70
2023-05-13T19:39:27.831Z,11.80
2023-05-13T19:41:54.508Z,11.70
2023-05-13T19:44:21.329Z,11.60
2023-05-13T19:46:48.241Z,11.60
2023-05-13T19:49:15.183Z,11.60
2023-05-13T19:51:42.061Z,11.50
2023-05-13T19:54:10.918Z,11.50
2023-05-13T19:56:38.037Z,12.30
2023-05-13T19:59:04.712Z,11.50
2023-05-13T20:01:32.031Z,11.50
2023-05-13T20:03:59.534Z,11.30
2023-05-13T20:06:26.609Z,11.30
2023-05-13T20:08:53.333Z,11.40
2023-05-13T20:11:20.690Z,11.30
2023-05-13T20:13:47.411Z,11.30
2023-05-13T20:16:14.193Z,11.30
2023-05-13T20:18:41.150Z,11.20
2023-05-13T20:21:08.683Z,11.20
2023-05-13T20:23:35.453Z,11.20
2023-05-13T20:26:02.244Z,11.20
2023-05-13T20:28:29.023Z,11.20
2023-05-13T20:30:56.157Z,11.30
2023-05-13T20:33:22.912Z,11.20
2023-05-13T20:35:49.673Z,11.10
2023-05-13T20:38:16.556Z,11.10
2023-05-13T20:40:43.282Z,11.10
2023-05-13T20:43:10.017Z,11.10
2023-05-13T20:45:39.550Z,11.00
2023-05-13T20:48:06.965Z,11.00
2023-05-13T20:50:33.721Z,10.90
2023-05-13T20:53:00.699Z,11.20
2023-05-13T20:55:27.629Z,11.00
2023-05-13T20:57:54.402Z,10.90
2023-05-13T21:00:21.394Z,10.80
2023-05-13T21:02:48.847Z,10.60
2023-05-13T21:05:15.801Z,10.60
2023-05-13T21:07:42.524Z,10.60
2023-05-13T21:10:09.544Z,10.50
2023-05-13T21:12:36.333Z,10.50
2023-05-13T21:15:03.217Z,10.50
2023-05-13T21:17:30.018Z,10.60
2023-05-13T21:19:56.822Z,10.60
2023-05-13T21:22:23.532Z,10.60
2023-05-13T21:24:50.738Z,10.70
2023-05-13T21:27:17.462Z,10.90
2023-05-13T21:29:47.406Z,10.80
2023-05-13T21:32:14.410Z,10.80
2023-05-13T21:34:41.154Z,10.90
2023-05-13T21:37:07.851Z,10.90
2023-05-13T21:39:34.597Z,10.90
2023-05-13T21:42:01.358Z,11.00
2023-05-13T21:44:29.124Z,11.00
2023-05-13T21:46:55.899Z,10.80
2023-05-13T21:49:22.684Z,10.90
2023-05-13T21:51:49.466Z,10.90
2023-05-13T21:54:16.272Z,10.90
2023-05-13T21:56:43.062Z,11.00
2023-05-13T21:59:09.783Z,11.00
2023-05-13T22:01:36.716Z,11.10
2023-05-13T22:04:03.600Z,11.30
2023-05-13T22:06:30.316Z,11.10
2023-05-13T22:08:57.031Z,11.10
2023-05-13T22:11:23.773Z,11.30
2023-05-13T22:13:50.496Z,11.20
2023-05-13T22:16:17.275Z,11.10
2023-05-13T22:18:44.535Z,11.20
2023-05-13T22:21:11.333Z,11.20
2023-05-13T22:23:38.084Z,11.20
2023-05-13T22:26:05.147Z,11.20
2023-05-13T22:28:31.907Z,11.20
2023-05-13T22:30:58.621Z,11.20
2023-05-13T22:33:25.637Z,11.30
2023-05-13T22:35:52.314Z,11.30
2023-05-13T22:38:19.049Z,11.20
2023-05-13T22:40:45.778Z,11.00
2023-05-13T22:43:12.480Z,10.90
2023-05-13T22:45:39.270Z,11.70
2023-05-13T22:48:06.388Z,11.00
2023-05-13T22:50:33.125Z,11.10
2023-05-13T22:52:59.845Z,11.20
2023-05-13T22:55:26.537Z,11.20
2023-05-13T22:57:53.284Z,11.40
2023-05-13T23:00:20.051Z,12.10
2023-05-13T23:02:46.782Z,11.20
2023-05-13T23:05:13.670Z,11.10
2023-05-13T23:07:40.324Z,11.10
2023-05-13T23:10:08.486Z,11.10
2023-05-13T23:12:35.202Z,11.10
2023-05-13T23:15:02.045Z,11.00
2023-05-13T23:17:29.102Z,11.00
2023-05-13T23:19:55.939Z,11.00
2023-05-13T23:22:22.610Z,11.10
2023-05-13T23:24:49.624Z,11.20
2023-05-13T23:27:16.323Z,11.20
2023-05-13T23:29:43.080Z,11.20
2023-05-13T23:32:09.778Z,11.20
2023-05-13T23:34:36.447Z,11.20
2023-05-13T23:37:03.238Z,11.00
2023-05-13T23:39:29.943Z,11.00
2023-05-13T23:41:56.657Z,11.00
2023-05-13T23:44:23.407Z,11.10
2023-05-13T23:46:50.173Z,11.20
2023-05-13T23:49:16.992Z,11.30
2023-05-13T23:51:43.839Z,11.20
2023-05-13T23:54:10.988Z,11.10
2023-05-13T23:56:37.734Z,11.20
2023-05-13T23:59:04.991Z,11.20
